sensor_id;sensor_type;location;lat;lon;timestamp;P1;durP1;ratioP1;P2;durP2;ratioP2
7432;SDS011;32233;49.500;7.764;2022-09-28T00:00:22;1.90;;;1.10;;
7432;SDS011;32233;49.500;7.764;2022-09-28T00:02:48;2.30;;;1.40;;
7432;SDS011;32233;49.500;7.764;2022-09-28T00:05:16;2.10;;;1.00;;
7432;SDS011;32233;49.500;7.764;2022-09-28T00:07:42;3.17;;;1.10;;
7432;SDS011;32233;49.500;7.764;2022-09-28T00:10:09;1.80;;;1.07;;
7432;SDS011;32233;49.500;7.764;2022-09-28T00:12:35;6.50;;;1.40;;
7432;SDS011;32233;49.500;7.764;2022-09-28T00:15:02;2.40;;;1.10;;
7432;SDS011;32233;49.500;7.764;2022-09-28T00:17:29;2.80;;;1.10;;
7432;SDS011;32233;49.500;7.764;2022-09-28T00:19:55;2.57;;;1.00;;
7432;SDS011;32233;49.500;7.764;2022-09-28T00:22:23;3.47;;;0.90;;
7432;SDS011;32233;49.500;7.764;2022-09-28T00:24:49;2.00;;;0.70;;
7432;SDS011;32233;49.500;7.764;2022-09-28T00:27:15;1.70;;;1.00;;
7432;SDS011;32233;49.500;7.764;2022-09-28T00:29:43;2.07;;;0.73;;
7432;SDS011;32233;49.500;7.764;2022-09-28T00:32:10;2.00;;;0.80;;
7432;SDS011;32233;49.500;7.764;2022-09-28T00:34:38;2.07;;;0.70;;
7432;SDS011;32233;49.500;7.764;2022-09-28T00:37:06;1.80;;;0.60;;
7432;SDS011;32233;49.500;7.764;2022-09-28T00:39:35;1.17;;;0.53;;
7432;SDS011;32233;49.500;7.764;2022-09-28T00:42:08;0.87;;;0.70;;
7432;SDS011;32233;49.500;7.764;2022-09-28T00:44:37;1.13;;;0.50;;
7432;SDS011;32233;49.500;7.764;2022-09-28T00:52:04;2.93;;;0.60;;
7432;SDS011;32233;49.500;7.764;2022-09-28T00:54:31;2.67;;;0.50;;
7432;SDS011;32233;49.500;7.764;2022-09-28T00:56:57;0.60;;;0.50;;
7432;SDS011;32233;49.500;7.764;2022-09-28T00:59:24;1.50;;;0.60;;
7432;SDS011;32233;49.500;7.764;2022-09-28T01:01:51;0.80;;;0.40;;
7432;SDS011;32233;49.500;7.764;2022-09-28T01:04:18;0.40;;;0.30;;
7432;SDS011;32233;49.500;7.764;2022-09-28T01:06:44;0.70;;;0.70;;
7432;SDS011;32233;49.500;7.764;2022-09-28T01:09:12;0.37;;;0.37;;
7432;SDS011;32233;49.500;7.764;2022-09-28T01:11:39;1.33;;;0.40;;
7432;SDS011;32233;49.500;7.764;2022-09-28T01:14:08;1.57;;;0.60;;
7432;SDS011;32233;49.500;7.764;2022-09-28T01:19:52;1.73;;;0.40;;
7432;SDS011;32233;49.500;7.764;2022-09-28T01:28:27;0.90;;;0.43;;
7432;SDS011;32233;49.500;7.764;2022-09-28T01:30:48;0.40;;;0.40;;
7432;SDS011;32233;49.500;7.764;2022-09-28T01:33:19;0.93;;;0.40;;
7432;SDS011;32233;49.500;7.764;2022-09-28T01:35:49;1.03;;;0.40;;
7432;SDS011;32233;49.500;7.764;2022-09-28T01:38:21;7.77;;;0.70;;
7432;SDS011;32233;49.500;7.764;2022-09-28T01:40:50;1.50;;;0.50;;
7432;SDS011;32233;49.500;7.764;2022-09-28T01:43:27;2.50;;;0.60;;
7432;SDS011;32233;49.500;7.764;2022-09-28T01:51:07;1.60;;;0.80;;
7432;SDS011;32233;49.500;7.764;2022-09-28T01:53:34;3.00;;;1.07;;
7432;SDS011;32233;49.500;7.764;2022-09-28T01:56:06;1.87;;;0.97;;
7432;SDS011;32233;49.500;7.764;2022-09-28T01:58:39;2.97;;;0.90;;
7432;SDS011;32233;49.500;7.764;2022-09-28T02:01:13;3.20;;;1.50;;
7432;SDS011;32233;49.500;7.764;2022-09-28T02:03:45;1.77;;;1.20;;
7432;SDS011;32233;49.500;7.764;2022-09-28T02:06:25;3.47;;;1.10;;
7432;SDS011;32233;49.500;7.764;2022-09-28T02:08:55;3.30;;;1.40;;
7432;SDS011;32233;49.500;7.764;2022-09-28T02:11:34;3.07;;;1.40;;
7432;SDS011;32233;49.500;7.764;2022-09-28T02:14:03;2.23;;;1.80;;
7432;SDS011;32233;49.500;7.764;2022-09-28T02:16:34;4.20;;;1.80;;
7432;SDS011;32233;49.500;7.764;2022-09-28T02:19:02;4.33;;;2.03;;
7432;SDS011;32233;49.500;7.764;2022-09-28T02:21:40;2.83;;;1.87;;
7432;SDS011;32233;49.500;7.764;2022-09-28T02:24:13;1.97;;;1.80;;
7432;SDS011;32233;49.500;7.764;2022-09-28T02:26:46;3.20;;;1.80;;
7432;SDS011;32233;49.500;7.764;2022-09-28T02:29:15;3.90;;;1.80;;
7432;SDS011;32233;49.500;7.764;2022-09-28T02:31:42;5.03;;;2.00;;
7432;SDS011;32233;49.500;7.764;2022-09-28T02:34:08;4.47;;;2.20;;
7432;SDS011;32233;49.500;7.764;2022-09-28T02:36:35;4.07;;;2.00;;
7432;SDS011;32233;49.500;7.764;2022-09-28T02:39:02;4.40;;;1.67;;
7432;SDS011;32233;49.500;7.764;2022-09-28T02:41:37;4.13;;;2.00;;
7432;SDS011;32233;49.500;7.764;2022-09-28T02:44:09;3.07;;;1.90;;
7432;SDS011;32233;49.500;7.764;2022-09-28T02:46:46;3.30;;;1.83;;
7432;SDS011;32233;49.500;7.764;2022-09-28T02:49:33;4.97;;;1.87;;
7432;SDS011;32233;49.500;7.764;2022-09-28T02:52:14;2.93;;;1.50;;
7432;SDS011;32233;49.500;7.764;2022-09-28T02:55:06;6.13;;;1.90;;
7432;SDS011;32233;49.500;7.764;2022-09-28T03:00:14;4.77;;;1.77;;
7432;SDS011;32233;49.500;7.764;2022-09-28T03:05:18;2.70;;;1.73;;
7432;SDS011;32233;49.500;7.764;2022-09-28T03:07:59;1.80;;;1.70;;
7432;SDS011;32233;49.500;7.764;2022-09-28T03:10:29;4.17;;;2.20;;
7432;SDS011;32233;49.500;7.764;2022-09-28T03:12:59;3.30;;;1.90;;
7432;SDS011;32233;49.500;7.764;2022-09-28T03:15:28;2.67;;;2.00;;
7432;SDS011;32233;49.500;7.764;2022-09-28T03:17:55;5.13;;;2.03;;
7432;SDS011;32233;49.500;7.764;2022-09-28T03:20:22;4.07;;;2.07;;
7432;SDS011;32233;49.500;7.764;2022-09-28T03:22:49;3.70;;;1.70;;
7432;SDS011;32233;49.500;7.764;2022-09-28T03:25:35;2.90;;;1.83;;
7432;SDS011;32233;49.500;7.764;2022-09-28T03:28:02;3.20;;;1.90;;
7432;SDS011;32233;49.500;7.764;2022-09-28T03:30:32;3.63;;;1.83;;
7432;SDS011;32233;49.500;7.764;2022-09-28T03:32:58;6.70;;;2.10;;
7432;SDS011;32233;49.500;7.764;2022-09-28T03:35:28;4.07;;;2.47;;
7432;SDS011;32233;49.500;7.764;2022-09-28T03:37:55;4.27;;;2.00;;
7432;SDS011;32233;49.500;7.764;2022-09-28T03:40:24;3.13;;;2.03;;
7432;SDS011;32233;49.500;7.764;2022-09-28T03:42:51;4.40;;;2.13;;
7432;SDS011;32233;49.500;7.764;2022-09-28T03:45:18;4.47;;;2.37;;
7432;SDS011;32233;49.500;7.764;2022-09-28T03:47:47;4.57;;;2.43;;
7432;SDS011;32233;49.500;7.764;2022-09-28T03:50:14;3.70;;;2.10;;
7432;SDS011;32233;49.500;7.764;2022-09-28T03:52:40;4.40;;;2.40;;
7432;SDS011;32233;49.500;7.764;2022-09-28T03:55:07;4.20;;;2.60;;
7432;SDS011;32233;49.500;7.764;2022-09-28T03:57:34;5.63;;;2.53;;
7432;SDS011;32233;49.500;7.764;2022-09-28T04:00:00;6.13;;;2.77;;
7432;SDS011;32233;49.500;7.764;2022-09-28T04:02:28;4.17;;;3.10;;
7432;SDS011;32233;49.500;7.764;2022-09-28T04:04:54;8.70;;;3.27;;
7432;SDS011;32233;49.500;7.764;2022-09-28T04:07:21;4.70;;;2.97;;
7432;SDS011;32233;49.500;7.764;2022-09-28T04:09:48;3.77;;;3.10;;
7432;SDS011;32233;49.500;7.764;2022-09-28T04:12:14;7.27;;;2.90;;
7432;SDS011;32233;49.500;7.764;2022-09-28T04:14:41;6.17;;;3.57;;
7432;SDS011;32233;49.500;7.764;2022-09-28T04:17:07;4.40;;;3.07;;
7432;SDS011;32233;49.500;7.764;2022-09-28T04:19:34;7.00;;;3.77;;
7432;SDS011;32233;49.500;7.764;2022-09-28T04:22:19;10.33;;;3.87;;
7432;SDS011;32233;49.500;7.764;2022-09-28T04:24:45;6.23;;;3.53;;
7432;SDS011;32233;49.500;7.764;2022-09-28T04:27:12;5.93;;;3.73;;
7432;SDS011;32233;49.500;7.764;2022-09-28T04:29:59;8.30;;;4.00;;
7432;SDS011;32233;49.500;7.764;2022-09-28T04:32:25;4.10;;;3.00;;
7432;SDS011;32233;49.500;7.764;2022-09-28T04:34:52;7.47;;;3.30;;
7432;SDS011;32233;49.500;7.764;2022-09-28T04:37:18;7.63;;;3.67;;
7432;SDS011;32233;49.500;7.764;2022-09-28T04:39:44;5.53;;;3.43;;
7432;SDS011;32233;49.500;7.764;2022-09-28T04:42:16;6.17;;;3.87;;
7432;SDS011;32233;49.500;7.764;2022-09-28T04:44:43;4.53;;;3.63;;
7432;SDS011;32233;49.500;7.764;2022-09-28T04:47:10;6.77;;;3.97;;
7432;SDS011;32233;49.500;7.764;2022-09-28T04:49:53;6.13;;;3.83;;
7432;SDS011;32233;49.500;7.764;2022-09-28T04:52:26;7.10;;;3.73;;
7432;SDS011;32233;49.500;7.764;2022-09-28T04:54:52;7.13;;;4.07;;
7432;SDS011;32233;49.500;7.764;2022-09-28T04:57:19;6.17;;;4.33;;
7432;SDS011;32233;49.500;7.764;2022-09-28T04:59:45;7.60;;;3.97;;
7432;SDS011;32233;49.500;7.764;2022-09-28T05:02:12;7.83;;;4.53;;
7432;SDS011;32233;49.500;7.764;2022-09-28T05:05:03;8.90;;;4.57;;
7432;SDS011;32233;49.500;7.764;2022-09-28T05:07:48;8.37;;;4.47;;
7432;SDS011;32233;49.500;7.764;2022-09-28T05:10:15;9.27;;;4.63;;
7432;SDS011;32233;49.500;7.764;2022-09-28T05:12:42;7.23;;;5.20;;
7432;SDS011;32233;49.500;7.764;2022-09-28T05:15:09;6.20;;;4.93;;
7432;SDS011;32233;49.500;7.764;2022-09-28T05:17:36;6.67;;;4.90;;
7432;SDS011;32233;49.500;7.764;2022-09-28T05:20:18;8.43;;;4.87;;
7432;SDS011;32233;49.500;7.764;2022-09-28T05:22:44;8.53;;;5.13;;
7432;SDS011;32233;49.500;7.764;2022-09-28T05:25:11;9.53;;;5.80;;
7432;SDS011;32233;49.500;7.764;2022-09-28T05:27:56;9.47;;;5.97;;
7432;SDS011;32233;49.500;7.764;2022-09-28T05:30:58;9.73;;;5.90;;
7432;SDS011;32233;49.500;7.764;2022-09-28T05:33:44;11.60;;;6.70;;
7432;SDS011;32233;49.500;7.764;2022-09-28T05:36:12;8.87;;;6.10;;
7432;SDS011;32233;49.500;7.764;2022-09-28T05:38:40;8.67;;;6.07;;
7432;SDS011;32233;49.500;7.764;2022-09-28T05:41:07;8.17;;;5.73;;
7432;SDS011;32233;49.500;7.764;2022-09-28T05:43:33;7.37;;;5.30;;
7432;SDS011;32233;49.500;7.764;2022-09-28T05:46:03;8.00;;;5.60;;
7432;SDS011;32233;49.500;7.764;2022-09-28T05:48:29;8.47;;;5.27;;
7432;SDS011;32233;49.500;7.764;2022-09-28T05:50:56;7.00;;;5.00;;
7432;SDS011;32233;49.500;7.764;2022-09-28T05:53:24;11.47;;;6.03;;
7432;SDS011;32233;49.500;7.764;2022-09-28T05:55:51;9.47;;;5.93;;
7432;SDS011;32233;49.500;7.764;2022-09-28T05:58:17;6.03;;;5.43;;
7432;SDS011;32233;49.500;7.764;2022-09-28T06:00:44;9.30;;;5.73;;
7432;SDS011;32233;49.500;7.764;2022-09-28T06:03:11;10.60;;;5.77;;
7432;SDS011;32233;49.500;7.764;2022-09-28T06:05:38;7.67;;;6.50;;
7432;SDS011;32233;49.500;7.764;2022-09-28T06:08:05;8.30;;;5.30;;
7432;SDS011;32233;49.500;7.764;2022-09-28T06:10:33;7.53;;;6.00;;
7432;SDS011;32233;49.500;7.764;2022-09-28T06:13:00;9.93;;;6.17;;
7432;SDS011;32233;49.500;7.764;2022-09-28T06:15:27;8.20;;;5.87;;
7432;SDS011;32233;49.500;7.764;2022-09-28T06:17:59;12.53;;;6.73;;
7432;SDS011;32233;49.500;7.764;2022-09-28T06:21:01;6.63;;;5.90;;
7432;SDS011;32233;49.500;7.764;2022-09-28T06:23:34;12.33;;;5.50;;
7432;SDS011;32233;49.500;7.764;2022-09-28T06:26:00;12.10;;;5.80;;
7432;SDS011;32233;49.500;7.764;2022-09-28T06:28:28;7.77;;;5.27;;
7432;SDS011;32233;49.500;7.764;2022-09-28T06:30:55;11.87;;;6.20;;
7432;SDS011;32233;49.500;7.764;2022-09-28T06:33:21;11.63;;;6.23;;
7432;SDS011;32233;49.500;7.764;2022-09-28T06:35:50;8.10;;;5.63;;
7432;SDS011;32233;49.500;7.764;2022-09-28T06:38:17;7.43;;;5.47;;
7432;SDS011;32233;49.500;7.764;2022-09-28T06:40:44;11.47;;;5.10;;
7432;SDS011;32233;49.500;7.764;2022-09-28T06:43:12;8.70;;;5.53;;
7432;SDS011;32233;49.500;7.764;2022-09-28T06:45:58;6.60;;;4.40;;
7432;SDS011;32233;49.500;7.764;2022-09-28T06:48:43;6.13;;;4.70;;
7432;SDS011;32233;49.500;7.764;2022-09-28T06:51:14;7.77;;;4.63;;
7432;SDS011;32233;49.500;7.764;2022-09-28T06:53:53;5.70;;;4.10;;
7432;SDS011;32233;49.500;7.764;2022-09-28T06:56:47;5.17;;;3.50;;
7432;SDS011;32233;49.500;7.764;2022-09-28T06:59:14;5.10;;;3.10;;
7432;SDS011;32233;49.500;7.764;2022-09-28T07:01:40;5.63;;;3.23;;
7432;SDS011;32233;49.500;7.764;2022-09-28T07:04:18;7.00;;;3.10;;
7432;SDS011;32233;49.500;7.764;2022-09-28T07:07:11;6.87;;;3.43;;
7432;SDS011;32233;49.500;7.764;2022-09-28T07:09:40;8.13;;;3.53;;
7432;SDS011;32233;49.500;7.764;2022-09-28T07:12:37;6.27;;;3.27;;
7432;SDS011;32233;49.500;7.764;2022-09-28T07:15:22;5.13;;;3.33;;
7432;SDS011;32233;49.500;7.764;2022-09-28T07:17:48;5.73;;;2.70;;
7432;SDS011;32233;49.500;7.764;2022-09-28T07:20:27;6.13;;;2.93;;
7432;SDS011;32233;49.500;7.764;2022-09-28T07:22:54;5.97;;;2.80;;
7432;SDS011;32233;49.500;7.764;2022-09-28T07:25:22;8.60;;;2.47;;
7432;SDS011;32233;49.500;7.764;2022-09-28T07:28:03;4.57;;;2.40;;
7432;SDS011;32233;49.500;7.764;2022-09-28T07:30:51;7.00;;;2.80;;
7432;SDS011;32233;49.500;7.764;2022-09-28T07:33:48;4.17;;;2.70;;
7432;SDS011;32233;49.500;7.764;2022-09-28T07:36:24;5.43;;;1.90;;
7432;SDS011;32233;49.500;7.764;2022-09-28T07:38:51;3.10;;;1.90;;
7432;SDS011;32233;49.500;7.764;2022-09-28T07:41:18;6.00;;;2.50;;
7432;SDS011;32233;49.500;7.764;2022-09-28T07:43:58;3.57;;;2.00;;
7432;SDS011;32233;49.500;7.764;2022-09-28T07:46:32;3.63;;;1.90;;
7432;SDS011;32233;49.500;7.764;2022-09-28T07:49:04;6.57;;;1.83;;
7432;SDS011;32233;49.500;7.764;2022-09-28T07:51:58;4.30;;;2.00;;
7432;SDS011;32233;49.500;7.764;2022-09-28T07:54:27;3.43;;;1.90;;
7432;SDS011;32233;49.500;7.764;2022-09-28T07:57:27;4.67;;;2.10;;
7432;SDS011;32233;49.500;7.764;2022-09-28T08:00:16;4.53;;;1.93;;
7432;SDS011;32233;49.500;7.764;2022-09-28T08:02:46;4.00;;;2.07;;
7432;SDS011;32233;49.500;7.764;2022-09-28T08:05:20;3.63;;;2.30;;
7432;SDS011;32233;49.500;7.764;2022-09-28T08:07:47;4.30;;;2.27;;
7432;SDS011;32233;49.500;7.764;2022-09-28T08:10:15;3.27;;;1.93;;
7432;SDS011;32233;49.500;7.764;2022-09-28T08:12:52;3.00;;;1.83;;
7432;SDS011;32233;49.500;7.764;2022-09-28T08:15:40;2.20;;;2.00;;
7432;SDS011;32233;49.500;7.764;2022-09-28T08:18:30;3.03;;;2.10;;
7432;SDS011;32233;49.500;7.764;2022-09-28T08:20:56;3.50;;;2.40;;
7432;SDS011;32233;49.500;7.764;2022-09-28T08:23:42;3.70;;;2.00;;
7432;SDS011;32233;49.500;7.764;2022-09-28T08:26:09;2.67;;;1.77;;
7432;SDS011;32233;49.500;7.764;2022-09-28T08:28:42;3.53;;;2.00;;
7432;SDS011;32233;49.500;7.764;2022-09-28T08:31:30;4.57;;;1.70;;
7432;SDS011;32233;49.500;7.764;2022-09-28T08:34:19;2.37;;;1.60;;
7432;SDS011;32233;49.500;7.764;2022-09-28T08:37:05;3.10;;;1.60;;
7432;SDS011;32233;49.500;7.764;2022-09-28T08:39:51;5.27;;;1.50;;
7432;SDS011;32233;49.500;7.764;2022-09-28T08:42:41;3.53;;;1.50;;
7432;SDS011;32233;49.500;7.764;2022-09-28T08:45:40;2.10;;;1.50;;
7432;SDS011;32233;49.500;7.764;2022-09-28T08:48:34;2.97;;;1.40;;
7432;SDS011;32233;49.500;7.764;2022-09-28T08:51:34;1.67;;;1.17;;
7432;SDS011;32233;49.500;7.764;2022-09-28T08:54:21;5.77;;;1.53;;
7432;SDS011;32233;49.500;7.764;2022-09-28T08:57:02;2.93;;;1.30;;
7432;SDS011;32233;49.500;7.764;2022-09-28T08:59:34;2.10;;;1.00;;
7432;SDS011;32233;49.500;7.764;2022-09-28T09:02:08;2.33;;;1.30;;
7432;SDS011;32233;49.500;7.764;2022-09-28T09:04:38;2.63;;;1.17;;
7432;SDS011;32233;49.500;7.764;2022-09-28T09:07:25;1.63;;;1.20;;
7432;SDS011;32233;49.500;7.764;2022-09-28T09:13:02;1.53;;;1.13;;
7432;SDS011;32233;49.500;7.764;2022-09-28T09:24:07;1.50;;;0.80;;
7432;SDS011;32233;49.500;7.764;2022-09-28T09:26:41;1.63;;;0.90;;
7432;SDS011;32233;49.500;7.764;2022-09-28T09:34:39;1.63;;;0.90;;
7432;SDS011;32233;49.500;7.764;2022-09-28T09:43:41;2.77;;;1.13;;
7432;SDS011;32233;49.500;7.764;2022-09-28T09:46:30;1.60;;;1.10;;
7432;SDS011;32233;49.500;7.764;2022-09-28T09:49:14;1.10;;;0.83;;
7432;SDS011;32233;49.500;7.764;2022-09-28T09:54:16;1.53;;;1.00;;
7432;SDS011;32233;49.500;7.764;2022-09-28T09:56:46;1.70;;;0.97;;
7432;SDS011;32233;49.500;7.764;2022-09-28T09:59:24;1.87;;;0.90;;
7432;SDS011;32233;49.500;7.764;2022-09-28T10:02:20;1.30;;;0.80;;
7432;SDS011;32233;49.500;7.764;2022-09-28T10:04:56;1.30;;;0.70;;
7432;SDS011;32233;49.500;7.764;2022-09-28T10:07:43;4.13;;;0.83;;
7432;SDS011;32233;49.500;7.764;2022-09-28T10:10:17;1.70;;;1.03;;
7432;SDS011;32233;49.500;7.764;2022-09-28T10:12:47;2.07;;;0.90;;
7432;SDS011;32233;49.500;7.764;2022-09-28T10:15:18;2.30;;;0.70;;
7432;SDS011;32233;49.500;7.764;2022-09-28T10:17:57;1.03;;;0.80;;
7432;SDS011;32233;49.500;7.764;2022-09-28T10:21:00;3.50;;;0.80;;
7432;SDS011;32233;49.500;7.764;2022-09-28T10:23:35;3.23;;;0.83;;
7432;SDS011;32233;49.500;7.764;2022-09-28T10:26:03;2.90;;;0.80;;
7432;SDS011;32233;49.500;7.764;2022-09-28T10:33:51;1.97;;;0.60;;
7432;SDS011;32233;49.500;7.764;2022-09-28T10:36:18;2.30;;;0.80;;
7432;SDS011;32233;49.500;7.764;2022-09-28T10:38:46;1.97;;;0.80;;
7432;SDS011;32233;49.500;7.764;2022-09-28T10:41:24;2.67;;;0.70;;
7432;SDS011;32233;49.500;7.764;2022-09-28T10:43:57;0.70;;;0.70;;
7432;SDS011;32233;49.500;7.764;2022-09-28T10:46:42;1.87;;;0.77;;
7432;SDS011;32233;49.500;7.764;2022-09-28T10:49:14;3.27;;;0.90;;
7432;SDS011;32233;49.500;7.764;2022-09-28T10:54:17;3.57;;;0.83;;
7432;SDS011;32233;49.500;7.764;2022-09-28T10:56:46;2.40;;;0.90;;
7432;SDS011;32233;49.500;7.764;2022-09-28T11:02:19;2.60;;;1.00;;
7432;SDS011;32233;49.500;7.764;2022-09-28T11:04:51;2.23;;;0.87;;
7432;SDS011;32233;49.500;7.764;2022-09-28T11:07:18;1.10;;;0.77;;
7432;SDS011;32233;49.500;7.764;2022-09-28T11:09:46;4.90;;;0.90;;
7432;SDS011;32233;49.500;7.764;2022-09-28T11:12:14;1.13;;;0.80;;
7432;SDS011;32233;49.500;7.764;2022-09-28T11:14:43;2.67;;;0.80;;
7432;SDS011;32233;49.500;7.764;2022-09-28T11:19:51;1.80;;;1.00;;
7432;SDS011;32233;49.500;7.764;2022-09-28T11:22:20;3.13;;;2.33;;
7432;SDS011;32233;49.500;7.764;2022-09-28T11:24:49;1.83;;;1.10;;
7432;SDS011;32233;49.500;7.764;2022-09-28T11:27:19;2.83;;;1.47;;
7432;SDS011;32233;49.500;7.764;2022-09-28T11:29:55;2.60;;;1.00;;
7432;SDS011;32233;49.500;7.764;2022-09-28T11:32:38;3.00;;;2.00;;
7432;SDS011;32233;49.500;7.764;2022-09-28T11:35:22;2.80;;;1.00;;
7432;SDS011;32233;49.500;7.764;2022-09-28T11:38:02;2.50;;;1.10;;
7432;SDS011;32233;49.500;7.764;2022-09-28T11:46:08;3.80;;;0.90;;
7432;SDS011;32233;49.500;7.764;2022-09-28T11:48:41;2.00;;;0.80;;
7432;SDS011;32233;49.500;7.764;2022-09-28T11:51:20;2.13;;;0.90;;
7432;SDS011;32233;49.500;7.764;2022-09-28T11:53:49;1.37;;;0.80;;
7432;SDS011;32233;49.500;7.764;2022-09-28T11:56:28;1.63;;;0.80;;
7432;SDS011;32233;49.500;7.764;2022-09-28T11:58:59;1.93;;;1.00;;
7432;SDS011;32233;49.500;7.764;2022-09-28T12:01:42;3.57;;;0.93;;
7432;SDS011;32233;49.500;7.764;2022-09-28T12:07:52;0.90;;;0.70;;
7432;SDS011;32233;49.500;7.764;2022-09-28T12:09:49;2.17;;;0.80;;
7432;SDS011;32233;49.500;7.764;2022-09-28T12:12:24;3.47;;;0.83;;
7432;SDS011;32233;49.500;7.764;2022-09-28T12:14:56;2.83;;;0.93;;
7432;SDS011;32233;49.500;7.764;2022-09-28T12:20:23;1.77;;;1.00;;
7432;SDS011;32233;49.500;7.764;2022-09-28T12:25:18;3.03;;;1.03;;
7432;SDS011;32233;49.500;7.764;2022-09-28T12:30:16;4.13;;;1.00;;
7432;SDS011;32233;49.500;7.764;2022-09-28T12:32:58;1.57;;;0.90;;
7432;SDS011;32233;49.500;7.764;2022-09-28T12:40:31;1.43;;;1.10;;
7432;SDS011;32233;49.500;7.764;2022-09-28T12:46:04;2.83;;;0.87;;
7432;SDS011;32233;49.500;7.764;2022-09-28T12:48:41;2.73;;;1.17;;
7432;SDS011;32233;49.500;7.764;2022-09-28T12:54:49;2.40;;;0.70;;
7432;SDS011;32233;49.500;7.764;2022-09-28T12:57:09;2.23;;;0.80;;
7432;SDS011;32233;49.500;7.764;2022-09-28T12:59:41;0.90;;;0.80;;
7432;SDS011;32233;49.500;7.764;2022-09-28T13:05:13;1.77;;;0.90;;
7432;SDS011;32233;49.500;7.764;2022-09-28T13:07:49;2.40;;;1.00;;
7432;SDS011;32233;49.500;7.764;2022-09-28T13:10:26;5.47;;;1.00;;
7432;SDS011;32233;49.500;7.764;2022-09-28T13:15:54;1.87;;;1.00;;
7432;SDS011;32233;49.500;7.764;2022-09-28T13:23:49;2.07;;;1.03;;
7432;SDS011;32233;49.500;7.764;2022-09-28T13:26:35;2.30;;;0.90;;
7432;SDS011;32233;49.500;7.764;2022-09-28T13:29:09;2.80;;;1.03;;
7432;SDS011;32233;49.500;7.764;2022-09-28T13:31:37;2.50;;;0.90;;
7432;SDS011;32233;49.500;7.764;2022-09-28T13:34:05;2.27;;;0.90;;
7432;SDS011;32233;49.500;7.764;2022-09-28T13:36:35;2.10;;;1.20;;
7432;SDS011;32233;49.500;7.764;2022-09-28T13:39:02;4.47;;;1.00;;
7432;SDS011;32233;49.500;7.764;2022-09-28T13:41:30;3.07;;;0.90;;
7432;SDS011;32233;49.500;7.764;2022-09-28T13:46:54;2.87;;;1.10;;
7432;SDS011;32233;49.500;7.764;2022-09-28T13:49:40;2.40;;;1.00;;
7432;SDS011;32233;49.500;7.764;2022-09-28T13:57:23;1.20;;;0.70;;
7432;SDS011;32233;49.500;7.764;2022-09-28T14:02:28;2.73;;;0.97;;
7432;SDS011;32233;49.500;7.764;2022-09-28T14:04:56;1.27;;;0.90;;
7432;SDS011;32233;49.500;7.764;2022-09-28T14:07:24;1.90;;;0.97;;
7432;SDS011;32233;49.500;7.764;2022-09-28T14:14:59;1.60;;;0.80;;
7432;SDS011;32233;49.500;7.764;2022-09-28T14:20:09;1.87;;;0.80;;
7432;SDS011;32233;49.500;7.764;2022-09-28T14:25:24;3.27;;;0.90;;
7432;SDS011;32233;49.500;7.764;2022-09-28T14:30:43;5.00;;;0.90;;
7432;SDS011;32233;49.500;7.764;2022-09-28T14:35:50;2.13;;;1.00;;
7432;SDS011;32233;49.500;7.764;2022-09-28T14:38:43;1.50;;;0.90;;
7432;SDS011;32233;49.500;7.764;2022-09-28T14:44:00;2.50;;;0.90;;
7432;SDS011;32233;49.500;7.764;2022-09-28T14:46:29;1.67;;;1.00;;
7432;SDS011;32233;49.500;7.764;2022-09-28T14:49:03;2.97;;;0.87;;
7432;SDS011;32233;49.500;7.764;2022-09-28T14:56:29;2.87;;;1.00;;
7432;SDS011;32233;49.500;7.764;2022-09-28T14:58:58;2.47;;;0.90;;
7432;SDS011;32233;49.500;7.764;2022-09-28T15:01:25;1.30;;;1.10;;
7432;SDS011;32233;49.500;7.764;2022-09-28T15:03:54;2.77;;;1.10;;
7432;SDS011;32233;49.500;7.764;2022-09-28T15:06:22;3.53;;;1.20;;
7432;SDS011;32233;49.500;7.764;2022-09-28T15:08:49;4.43;;;1.70;;
7432;SDS011;32233;49.500;7.764;2022-09-28T15:11:22;3.00;;;1.20;;
7432;SDS011;32233;49.500;7.764;2022-09-28T15:13:50;2.10;;;1.23;;
7432;SDS011;32233;49.500;7.764;2022-09-28T15:16:21;3.47;;;1.10;;
7432;SDS011;32233;49.500;7.764;2022-09-28T15:21:37;3.23;;;1.00;;
7432;SDS011;32233;49.500;7.764;2022-09-28T15:24:24;1.27;;;1.17;;
7432;SDS011;32233;49.500;7.764;2022-09-28T15:26:51;2.70;;;1.40;;
7432;SDS011;32233;49.500;7.764;2022-09-28T15:29:18;2.07;;;1.20;;
7432;SDS011;32233;49.500;7.764;2022-09-28T15:31:45;1.77;;;1.20;;
7432;SDS011;32233;49.500;7.764;2022-09-28T15:34:30;2.70;;;1.30;;
7432;SDS011;32233;49.500;7.764;2022-09-28T15:37:28;2.73;;;1.20;;
7432;SDS011;32233;49.500;7.764;2022-09-28T15:39:57;2.60;;;1.33;;
7432;SDS011;32233;49.500;7.764;2022-09-28T15:42:25;2.00;;;1.50;;
7432;SDS011;32233;49.500;7.764;2022-09-28T15:47:28;2.73;;;1.33;;
7432;SDS011;32233;49.500;7.764;2022-09-28T15:49:55;3.90;;;1.30;;
7432;SDS011;32233;49.500;7.764;2022-09-28T15:52:25;2.37;;;1.23;;
7432;SDS011;32233;49.500;7.764;2022-09-28T15:54:51;3.23;;;1.33;;
7432;SDS011;32233;49.500;7.764;2022-09-28T15:57:29;3.00;;;1.20;;
7432;SDS011;32233;49.500;7.764;2022-09-28T15:59:58;3.50;;;1.03;;
7432;SDS011;32233;49.500;7.764;2022-09-28T16:02:26;2.17;;;1.23;;
7432;SDS011;32233;49.500;7.764;2022-09-28T16:04:59;2.13;;;1.10;;
7432;SDS011;32233;49.500;7.764;2022-09-28T16:07:28;3.03;;;1.10;;
7432;SDS011;32233;49.500;7.764;2022-09-28T16:17:36;5.07;;;1.20;;
7432;SDS011;32233;49.500;7.764;2022-09-28T16:20:04;2.80;;;1.13;;
7432;SDS011;32233;49.500;7.764;2022-09-28T16:22:43;2.30;;;1.13;;
7432;SDS011;32233;49.500;7.764;2022-09-28T16:25:17;3.13;;;1.23;;
7432;SDS011;32233;49.500;7.764;2022-09-28T16:27:44;7.13;;;1.67;;
7432;SDS011;32233;49.500;7.764;2022-09-28T16:32:50;4.47;;;1.50;;
7432;SDS011;32233;49.500;7.764;2022-09-28T16:38:10;3.93;;;1.10;;
7432;SDS011;32233;49.500;7.764;2022-09-28T16:40:37;3.33;;;1.23;;
7432;SDS011;32233;49.500;7.764;2022-09-28T16:43:04;1.50;;;1.40;;
7432;SDS011;32233;49.500;7.764;2022-09-28T16:45:31;4.37;;;1.67;;
7432;SDS011;32233;49.500;7.764;2022-09-28T16:48:00;4.30;;;1.20;;
7432;SDS011;32233;49.500;7.764;2022-09-28T16:50:28;3.43;;;1.30;;
7432;SDS011;32233;49.500;7.764;2022-09-28T16:53:05;3.00;;;1.70;;
7432;SDS011;32233;49.500;7.764;2022-09-28T16:55:52;3.73;;;1.40;;
7432;SDS011;32233;49.500;7.764;2022-09-28T16:58:18;2.33;;;1.53;;
7432;SDS011;32233;49.500;7.764;2022-09-28T17:00:46;14.23;;;6.60;;
7432;SDS011;32233;49.500;7.764;2022-09-28T17:03:13;8.67;;;5.70;;
7432;SDS011;32233;49.500;7.764;2022-09-28T17:05:40;4.07;;;2.73;;
7432;SDS011;32233;49.500;7.764;2022-09-28T17:08:07;4.07;;;2.10;;
7432;SDS011;32233;49.500;7.764;2022-09-28T17:10:40;3.20;;;1.73;;
7432;SDS011;32233;49.500;7.764;2022-09-28T17:13:29;3.20;;;1.87;;
7432;SDS011;32233;49.500;7.764;2022-09-28T17:16:00;5.70;;;1.97;;
7432;SDS011;32233;49.500;7.764;2022-09-28T17:18:28;5.83;;;2.13;;
7432;SDS011;32233;49.500;7.764;2022-09-28T17:20:57;3.73;;;2.40;;
7432;SDS011;32233;49.500;7.764;2022-09-28T17:23:25;2.30;;;1.93;;
7432;SDS011;32233;49.500;7.764;2022-09-28T17:25:51;5.53;;;2.10;;
7432;SDS011;32233;49.500;7.764;2022-09-28T17:28:21;3.50;;;1.80;;
7432;SDS011;32233;49.500;7.764;2022-09-28T17:30:48;3.50;;;2.00;;
7432;SDS011;32233;49.500;7.764;2022-09-28T17:33:14;4.37;;;2.40;;
7432;SDS011;32233;49.500;7.764;2022-09-28T17:35:41;3.47;;;3.17;;
7432;SDS011;32233;49.500;7.764;2022-09-28T17:38:11;5.70;;;5.30;;
7432;SDS011;32233;49.500;7.764;2022-09-28T17:40:38;6.10;;;5.50;;
7432;SDS011;32233;49.500;7.764;2022-09-28T17:43:04;7.80;;;6.17;;
7432;SDS011;32233;49.500;7.764;2022-09-28T17:45:31;8.73;;;6.50;;
7432;SDS011;32233;49.500;7.764;2022-09-28T17:47:58;7.53;;;6.83;;
7432;SDS011;32233;49.500;7.764;2022-09-28T17:50:26;14.33;;;12.43;;
7432;SDS011;32233;49.500;7.764;2022-09-28T17:52:54;10.47;;;8.83;;
7432;SDS011;32233;49.500;7.764;2022-09-28T17:55:23;12.77;;;7.30;;
7432;SDS011;32233;49.500;7.764;2022-09-28T17:57:52;7.80;;;5.90;;
7432;SDS011;32233;49.500;7.764;2022-09-28T18:00:18;7.50;;;5.87;;
7432;SDS011;32233;49.500;7.764;2022-09-28T18:02:45;9.27;;;6.00;;
7432;SDS011;32233;49.500;7.764;2022-09-28T18:05:12;6.93;;;5.77;;
7432;SDS011;32233;49.500;7.764;2022-09-28T18:07:40;8.57;;;5.87;;